Matam, Senegal
Current Conditions -  °F | °C
As of 10:00 AM on Sunday 21 Dec 2014 (Local Time) from GOSM Reporting Station
Clear Clear  
Wind Chill: 73°   Ceiling: Unl
Heat Index: 73°   Visibility: 6mi
Dew Point: 45°   Wind: 2mph
Humidity: 36%   Direction: 70°ENE
Pressure: 30.06"   Gusts: NA
Location:  15.66°N, 13.26°W
Report Text: GOSM 211000Z 07002KT CAVOK 23/07 Q1018
Loading
Personal Weather Stations






























Interactive Weather Map New forecast layout! Learn more

10-Day Weather Forecast

Advertisements
Track Severe Weather on mobile